Terminal Aerodrome Forecast
Issued by NWS Lake Charles, LA

Home | Current Version | Previous Version | Text Only | Print | Product List | Glossary On
Versions: 1 2 3 4 5 6 7 8 9 10 11 12 13 14
827
FTUS44 KLCH 231720
TAFARA
TAF
KARA 231720Z 2318/2418 19014G22KT P6SM VCTS SCT025 BKN035CB
      TEMPO 2318/2322 3SM TSRA OVC025CB
     FM240000 18006KT P6SM SCT040 BKN250
     FM241400 20010KT P6SM VCTS SCT025 BKN035CB PROB30 2415/2418
      P6SM TSRA BKN025CB=

USA.gov is the U.S. government's official web portal to all federal, state and local government web resources and services.